createdAt,value
2022-11-28T00:02:02.376Z,97627.72
2022-11-28T00:04:30.233Z,97634.25
2022-11-28T00:06:58.110Z,97645.47
2022-11-28T00:09:25.629Z,97607.16
2022-11-28T00:11:58.034Z,97598.81
2022-11-28T00:14:25.630Z,97644.50
2022-11-28T00:16:54.787Z,97645.88
2022-11-28T00:19:22.261Z,97641.75
2022-11-28T00:21:49.957Z,97650.84
2022-11-28T00:24:21.863Z,97655.56
2022-11-28T00:26:49.556Z,97616.59
2022-11-28T00:29:20.513Z,97655.19
2022-11-28T00:31:49.125Z,97657.81
2022-11-28T00:34:19.261Z,97658.13
2022-11-28T00:36:49.019Z,97648.59
2022-11-28T00:39:16.740Z,97642.31
2022-11-28T00:41:45.150Z,97649.09
2022-11-28T00:44:12.807Z,97646.72
2022-11-28T00:46:42.734Z,97641.38
2022-11-28T00:49:09.735Z,97638.44
2022-11-28T00:51:37.314Z,97640.06
2022-11-28T00:54:07.356Z,97638.84
2022-11-28T00:56:38.424Z,97605.56
2022-11-28T00:59:07.449Z,97636.00
2022-11-28T01:01:41.463Z,97640.13
2022-11-28T01:04:15.171Z,97636.22
2022-11-28T01:06:46.493Z,97630.13
2022-11-28T01:09:23.111Z,97598.81
2022-11-28T01:11:53.954Z,97641.38
2022-11-28T01:14:24.014Z,97620.78
2022-11-28T01:16:52.326Z,97616.72
2022-11-28T01:19:20.485Z,97628.53
2022-11-28T01:21:47.650Z,97630.88
2022-11-28T01:24:17.423Z,97620.66
2022-11-28T01:26:45.229Z,97633.53
2022-11-28T01:29:12.719Z,97613.75
2022-11-28T01:31:40.189Z,97628.09
2022-11-28T01:34:08.261Z,97614.56
2022-11-28T01:36:36.932Z,97622.88
2022-11-28T01:39:05.226Z,97611.34
2022-11-28T01:41:32.951Z,97599.88
2022-11-28T01:44:02.989Z,97612.97
2022-11-28T01:46:31.124Z,97612.28
2022-11-28T01:49:03.695Z,97614.72
2022-11-28T01:51:34.829Z,97600.78
2022-11-28T01:54:03.885Z,97610.75
2022-11-28T01:56:43.359Z,97608.06
2022-11-28T01:59:15.397Z,97606.94
2022-11-28T02:01:47.297Z,97610.38
2022-11-28T02:04:19.002Z,97597.63
2022-11-28T02:06:46.224Z,97597.94
2022-11-28T02:09:16.569Z,97596.13
2022-11-28T02:11:49.196Z,97599.91
2022-11-28T02:14:50.250Z,97600.63
2022-11-28T02:17:37.674Z,97593.69
2022-11-28T02:20:14.368Z,97595.34
2022-11-28T02:23:29.927Z,97597.19
2022-11-28T02:26:15.534Z,97594.81
2022-11-28T02:28:52.491Z,97586.91
2022-11-28T02:31:57.992Z,97592.75
2022-11-28T02:35:06.096Z,97595.59
2022-11-28T02:37:35.248Z,97591.47
2022-11-28T02:40:23.832Z,97603.22
2022-11-28T02:43:09.222Z,97585.47
2022-11-28T02:46:02.608Z,97582.75
2022-11-28T02:48:49.933Z,97588.56
2022-11-28T02:51:37.087Z,97588.53
2022-11-28T02:54:11.955Z,97577.38
2022-11-28T02:56:41.533Z,97590.09
2022-11-28T02:59:28.990Z,97571.47
2022-11-28T03:01:56.671Z,97596.16
2022-11-28T03:04:40.828Z,97587.81
2022-11-28T03:07:17.412Z,97591.19
2022-11-28T03:10:04.913Z,97592.91
2022-11-28T03:12:49.045Z,97580.94
2022-11-28T03:15:20.852Z,97580.75
2022-11-28T03:17:55.208Z,97597.03
2022-11-28T03:21:00.195Z,97590.44
2022-11-28T03:23:39.214Z,97594.47
2022-11-28T03:26:40.736Z,97581.03
2022-11-28T03:29:19.904Z,97594.28
2022-11-28T03:31:59.892Z,97604.41
2022-11-28T03:34:36.119Z,97602.63
2022-11-28T03:37:19.225Z,97578.34
2022-11-28T03:39:53.782Z,97600.00
2022-11-28T03:42:28.034Z,97593.44
2022-11-28T03:45:10.405Z,97599.97
2022-11-28T03:47:45.512Z,97616.38
2022-11-28T03:50:31.080Z,97590.75
2022-11-28T03:53:05.585Z,97606.97
2022-11-28T03:55:47.167Z,97609.72
2022-11-28T03:58:55.245Z,97607.19
2022-11-28T04:01:48.156Z,97612.47
2022-11-28T04:04:48.259Z,97611.34
2022-11-28T04:07:34.691Z,97594.69
2022-11-28T04:10:33.871Z,97617.22
2022-11-28T04:13:03.195Z,97609.31
2022-11-28T04:15:48.454Z,97613.38
2022-11-28T04:18:20.779Z,97619.16
2022-11-28T04:21:02.834Z,97616.59
2022-11-28T04:23:33.516Z,97624.31
2022-11-28T04:26:17.777Z,97581.38
2022-11-28T04:28:49.802Z,97621.06
2022-11-28T04:31:19.255Z,97614.38
2022-11-28T04:33:53.759Z,97620.25
2022-11-28T04:36:24.308Z,97605.25
2022-11-28T04:39:02.261Z,97628.81
2022-11-28T04:41:41.103Z,97628.97
2022-11-28T04:44:25.476Z,97611.25
2022-11-28T04:46:58.560Z,97597.44
2022-11-28T04:49:32.651Z,97604.38
2022-11-28T04:52:15.492Z,97630.06
2022-11-28T04:55:04.547Z,97632.53
2022-11-28T04:58:07.303Z,97631.09
2022-11-28T05:00:37.267Z,97632.28
2022-11-28T05:03:06.573Z,97627.94
2022-11-28T05:05:46.266Z,97628.81
2022-11-28T05:08:19.692Z,97584.84
2022-11-28T05:10:48.335Z,97592.72
2022-11-28T05:13:16.174Z,97637.38
2022-11-28T05:15:44.239Z,97625.50
2022-11-28T05:18:13.174Z,97627.19
2022-11-28T05:20:40.521Z,97628.28
2022-11-28T05:23:09.022Z,97618.81
2022-11-28T05:25:39.829Z,97616.25
2022-11-28T05:28:07.820Z,97620.56
2022-11-28T05:30:42.474Z,97614.59
2022-11-28T05:33:12.704Z,97600.94
2022-11-28T05:35:43.572Z,97607.81
2022-11-28T05:38:17.188Z,97624.66
2022-11-28T05:40:46.493Z,97627.00
2022-11-28T05:43:13.714Z,97632.16
2022-11-28T05:45:44.857Z,97631.13
2022-11-28T05:48:14.290Z,97615.25
2022-11-28T05:50:45.361Z,97621.06
2022-11-28T05:53:20.446Z,97629.72
2022-11-28T05:55:58.817Z,97617.09
2022-11-28T05:58:26.773Z,97650.47
2022-11-28T06:01:21.739Z,97619.75
2022-11-28T06:03:55.348Z,97643.53
2022-11-28T06:06:23.762Z,97637.41
2022-11-28T06:08:55.483Z,97618.19
2022-11-28T06:11:30.848Z,97639.91
2022-11-28T06:14:13.979Z,97628.78
2022-11-28T06:16:44.442Z,97600.06
2022-11-28T06:19:13.189Z,97609.22
2022-11-28T06:21:44.171Z,97609.19
2022-11-28T06:24:13.997Z,97615.75
2022-11-28T06:26:44.033Z,97621.53
2022-11-28T06:29:19.293Z,97609.72
2022-11-28T06:34:29.880Z,97604.44
2022-11-28T06:37:10.413Z,97598.72
2022-11-28T06:42:21.912Z,97589.38
2022-11-28T06:44:53.266Z,97605.38
2022-11-28T06:47:31.277Z,97602.72
2022-11-28T06:50:09.672Z,97582.56
2022-11-28T06:55:44.670Z,97601.44
2022-11-28T06:58:20.731Z,97587.66
2022-11-28T07:00:52.670Z,97581.75
2022-11-28T07:03:30.926Z,97594.94
2022-11-28T07:06:24.786Z,97592.38
2022-11-28T07:09:02.442Z,97596.31
2022-11-28T07:11:45.807Z,97570.00
2022-11-28T07:14:16.681Z,97570.03
2022-11-28T07:16:45.827Z,97558.09
2022-11-28T07:19:24.551Z,97564.59
2022-11-28T07:21:56.604Z,97574.72
2022-11-28T07:24:30.153Z,97566.19
2022-11-28T07:30:00.867Z,97579.59
2022-11-28T07:32:37.062Z,97564.31
2022-11-28T07:35:10.633Z,97567.56
2022-11-28T07:37:42.495Z,97566.50
2022-11-28T07:40:12.420Z,97574.84
2022-11-28T07:42:42.240Z,97538.75
2022-11-28T07:48:02.043Z,97553.78
2022-11-28T07:50:38.006Z,97576.47
2022-11-28T07:53:18.020Z,97558.31
2022-11-28T07:55:53.161Z,97558.34
2022-11-28T07:58:26.848Z,97557.56
2022-11-28T08:00:55.647Z,97568.44
2022-11-28T08:03:27.698Z,97573.13
2022-11-28T08:08:44.439Z,97561.59
2022-11-28T08:11:16.784Z,97544.81
2022-11-28T08:13:46.322Z,97564.72
2022-11-28T08:16:21.657Z,97570.25
2022-11-28T08:18:53.974Z,97548.94
2022-11-28T08:21:28.682Z,97547.78
2022-11-28T08:24:04.619Z,97555.00
2022-11-28T08:26:53.745Z,97521.47
2022-11-28T08:29:33.777Z,97543.31
2022-11-28T08:32:05.452Z,97554.81
2022-11-28T08:34:40.657Z,97536.84
2022-11-28T08:40:13.865Z,97538.72
2022-11-28T08:42:56.861Z,97512.38
2022-11-28T08:46:31.685Z,97542.31
2022-11-28T08:50:18.587Z,97543.66
2022-11-28T08:55:41.634Z,97523.69
2022-11-28T08:58:16.078Z,97515.22
2022-11-28T09:00:54.815Z,97520.19
2022-11-28T09:03:25.440Z,97520.84
2022-11-28T09:05:58.990Z,97516.94
2022-11-28T09:08:33.156Z,97508.94
2022-11-28T09:11:03.739Z,97515.09
2022-11-28T09:14:01.903Z,97517.34
2022-11-28T09:16:34.072Z,97498.56
2022-11-28T09:19:05.436Z,97481.59
2022-11-28T09:21:57.360Z,97494.59
2022-11-28T09:24:27.185Z,97493.84
2022-11-28T09:26:57.320Z,97505.31
2022-11-28T09:32:24.014Z,97497.34
2022-11-28T09:34:55.399Z,97481.22
2022-11-28T09:37:26.649Z,97468.56
2022-11-28T09:40:12.647Z,97477.34
2022-11-28T09:42:53.341Z,97475.41
2022-11-28T09:45:38.288Z,97488.94
2022-11-28T09:51:48.862Z,97463.38
2022-11-28T09:54:38.539Z,97452.34
2022-11-28T09:57:22.514Z,97465.75
2022-11-28T09:59:53.035Z,97464.06
2022-11-28T10:02:23.585Z,97473.63
2022-11-28T10:05:17.815Z,97460.53
2022-11-28T10:08:06.308Z,97462.19
2022-11-28T10:14:23.971Z,97462.84
2022-11-28T10:17:24.984Z,97474.91
2022-11-28T10:20:08.876Z,97459.78
2022-11-28T10:23:01.055Z,97469.53
2022-11-28T10:26:10.251Z,97460.25
2022-11-28T10:34:49.509Z,97456.69
2022-11-28T10:37:23.298Z,97460.94
2022-11-28T10:40:01.709Z,97438.03
2022-11-28T10:43:00.695Z,97455.78
2022-11-28T10:46:05.373Z,97444.16
2022-11-28T10:52:02.272Z,97442.44
2022-11-28T10:55:00.625Z,97438.47
2022-11-28T10:58:08.149Z,97431.31
2022-11-28T11:00:45.870Z,97421.66
2022-11-28T11:03:18.255Z,97382.84
2022-11-28T11:11:42.577Z,97422.72
2022-11-28T11:17:01.230Z,97409.34
2022-11-28T11:19:44.787Z,97421.47
2022-11-28T11:22:28.665Z,97416.78
2022-11-28T11:25:21.339Z,97383.47
2022-11-28T11:28:10.051Z,97415.25
2022-11-28T11:30:42.130Z,97424.66
2022-11-28T11:33:21.218Z,97407.38
2022-11-28T11:35:53.530Z,97407.84
2022-11-28T11:38:20.489Z,97411.34
2022-11-28T11:40:53.717Z,97400.84
2022-11-28T11:43:43.106Z,97401.00
2022-11-28T11:49:04.500Z,97388.34
2022-11-28T11:51:46.599Z,97410.03
2022-11-28T11:54:22.580Z,97405.06
2022-11-28T11:57:30.922Z,97391.00
2022-11-28T12:00:18.947Z,97395.84
2022-11-28T12:03:00.950Z,97390.00
2022-11-28T12:06:14.222Z,97408.97
2022-11-28T12:08:57.167Z,97413.41
2022-11-28T12:11:51.784Z,97404.00
2022-11-28T12:14:34.446Z,97409.38
2022-11-28T12:20:48.606Z,97406.66
2022-11-28T12:24:20.396Z,97413.34
2022-11-28T12:27:30.518Z,97412.59
2022-11-28T12:38:10.754Z,97406.63
2022-11-28T12:41:06.130Z,97410.06
2022-11-28T12:43:58.857Z,97386.66
2022-11-28T12:46:58.225Z,97396.22
2022-11-28T12:49:48.396Z,97401.16
2022-11-28T12:53:09.455Z,97400.50
2022-11-28T12:56:49.905Z,97403.91
2022-11-28T12:59:41.349Z,97409.63
2022-11-28T13:06:07.254Z,97398.75
2022-11-28T13:10:06.902Z,97409.69
2022-11-28T13:21:18.947Z,97415.03
2022-11-28T13:28:08.288Z,97417.88
2022-11-28T13:33:39.734Z,97418.91
2022-11-28T13:43:09.844Z,97403.34
2022-11-28T13:49:14.455Z,97429.63
2022-11-28T13:51:51.185Z,97393.06
2022-11-28T13:54:27.698Z,97426.72
2022-11-28T13:57:43.006Z,97421.09
2022-11-28T14:00:19.301Z,97430.16
2022-11-28T14:03:10.917Z,97422.28
2022-11-28T14:08:41.479Z,97415.34
2022-11-28T14:11:55.613Z,97415.78
2022-11-28T14:14:57.566Z,97407.16
2022-11-28T14:17:45.916Z,97411.66
2022-11-28T14:20:32.812Z,97412.50
2022-11-28T14:23:34.915Z,97410.84
2022-11-28T14:26:36.070Z,97405.09
2022-11-28T14:29:21.697Z,97398.19
2022-11-28T14:32:28.027Z,97407.16
2022-11-28T14:34:53.619Z,97411.06
2022-11-28T14:37:24.814Z,97415.91
2022-11-28T14:39:57.218Z,97406.91
2022-11-28T14:42:59.726Z,97413.16
2022-11-28T14:45:33.011Z,97413.91
2022-11-28T14:51:56.522Z,97392.31
2022-11-28T14:55:10.690Z,97402.44
2022-11-28T14:58:07.863Z,97408.50
2022-11-28T15:01:04.413Z,97408.34
2022-11-28T15:04:13.023Z,97411.72
2022-11-28T15:06:46.466Z,97407.59
2022-11-28T15:09:43.789Z,97414.28
2022-11-28T15:12:52.981Z,97413.31
2022-11-28T15:15:28.416Z,97394.75
2022-11-28T15:18:05.334Z,97414.28
2022-11-28T15:20:42.944Z,97409.91
2022-11-28T15:23:31.303Z,97420.72
2022-11-28T15:28:44.424Z,97415.41
2022-11-28T15:31:27.035Z,97392.63
2022-11-28T15:34:05.865Z,97411.25
2022-11-28T15:36:37.005Z,97414.72
2022-11-28T15:39:04.800Z,97395.28
2022-11-28T15:41:34.409Z,97378.38
2022-11-28T15:44:07.544Z,97399.75
2022-11-28T15:46:37.552Z,97411.13
2022-11-28T15:49:25.733Z,97403.25
2022-11-28T15:51:58.453Z,97417.75
2022-11-28T15:57:28.806Z,97410.69
2022-11-28T16:00:03.207Z,97408.25
2022-11-28T16:02:53.526Z,97411.69
2022-11-28T16:05:24.503Z,97414.13
2022-11-28T16:08:01.871Z,97405.84
2022-11-28T16:10:35.237Z,97409.94
2022-11-28T16:13:19.257Z,97419.28
2022-11-28T16:16:05.127Z,97398.13
2022-11-28T16:18:34.796Z,97419.56
2022-11-28T16:23:50.336Z,97416.03
2022-11-28T16:26:35.036Z,97413.47
2022-11-28T16:29:12.224Z,97414.94
2022-11-28T16:31:41.469Z,97403.59
2022-11-28T16:34:18.111Z,97409.47
2022-11-28T16:36:55.867Z,97418.75
2022-11-28T16:39:25.918Z,97406.22
2022-11-28T16:42:17.496Z,97413.72
2022-11-28T16:44:47.207Z,97403.25
2022-11-28T16:47:34.059Z,97395.72
2022-11-28T16:50:15.786Z,97411.88
2022-11-28T16:52:58.539Z,97393.19
2022-11-28T16:55:29.902Z,97409.59
2022-11-28T16:58:23.001Z,97408.47
2022-11-28T17:01:06.087Z,97398.31
2022-11-28T17:04:05.790Z,97408.75
2022-11-28T17:09:32.712Z,97391.19
2022-11-28T17:12:20.166Z,97402.13
2022-11-28T17:14:49.542Z,97403.88
2022-11-28T17:17:23.841Z,97409.06
2022-11-28T17:19:55.823Z,97391.16
2022-11-28T17:22:43.827Z,97407.91
2022-11-28T17:32:21.246Z,97385.81
2022-11-28T17:34:50.836Z,97379.06
2022-11-28T17:37:19.205Z,97396.91
2022-11-28T17:40:08.685Z,97394.94
2022-11-28T17:42:43.202Z,97396.47
2022-11-28T17:45:18.396Z,97397.09
2022-11-28T17:47:59.320Z,97394.56
2022-11-28T17:50:34.339Z,97403.88
2022-11-28T17:56:00.217Z,97413.34
2022-11-28T17:58:36.621Z,97403.88
2022-11-28T18:01:13.538Z,97391.63
2022-11-28T18:03:44.526Z,97396.66
2022-11-28T18:06:28.501Z,97377.03
2022-11-28T18:09:11.645Z,97398.28
2022-11-28T18:11:42.565Z,97394.09
2022-11-28T18:16:58.723Z,97380.56
2022-11-28T18:19:29.545Z,97362.69
2022-11-28T18:22:01.647Z,97391.34
2022-11-28T18:24:33.728Z,97374.25
2022-11-28T18:27:04.354Z,97382.88
2022-11-28T18:29:32.323Z,97376.84
2022-11-28T18:32:00.644Z,97374.47
2022-11-28T18:34:28.834Z,97382.91
2022-11-28T18:37:00.958Z,97363.38
2022-11-28T18:39:37.590Z,97380.31
2022-11-28T18:42:05.823Z,97382.13
2022-11-28T18:44:33.915Z,97390.19
2022-11-28T18:47:14.877Z,97388.38
2022-11-28T18:50:16.035Z,97372.16
2022-11-28T18:52:49.526Z,97368.59
2022-11-28T18:55:18.614Z,97348.38
2022-11-28T18:58:10.226Z,97392.41
2022-11-28T19:00:41.192Z,97394.13
2022-11-28T19:03:12.529Z,97385.00
2022-11-28T19:05:53.929Z,97379.09
2022-11-28T19:11:23.595Z,97398.03
2022-11-28T19:13:53.729Z,97364.81
2022-11-28T19:16:28.409Z,97381.94
2022-11-28T19:19:02.522Z,97385.22
2022-11-28T19:21:33.604Z,97383.00
2022-11-28T19:24:04.593Z,97366.97
2022-11-28T19:26:38.473Z,97379.31
2022-11-28T19:29:14.398Z,97386.22
2022-11-28T19:31:58.252Z,97373.53
2022-11-28T19:34:32.483Z,97379.44
2022-11-28T19:37:01.643Z,97388.44
2022-11-28T19:43:49.793Z,97368.19
2022-11-28T19:46:23.410Z,97386.16
2022-11-28T19:48:52.249Z,97392.19
2022-11-28T19:51:22.413Z,97388.75
2022-11-28T19:53:50.950Z,97394.63
2022-11-28T19:56:23.369Z,97353.25
2022-11-28T19:58:50.716Z,97376.56
2022-11-28T20:01:21.516Z,97394.47
2022-11-28T20:03:53.523Z,97387.56
2022-11-28T20:06:36.841Z,97384.41
2022-11-28T20:09:08.526Z,97372.69
2022-11-28T20:11:43.474Z,97393.22
2022-11-28T20:18:10.236Z,97191.78
2022-11-28T20:20:40.607Z,97377.44
2022-11-28T20:23:12.792Z,97377.31
2022-11-28T20:25:47.683Z,97376.47
2022-11-28T20:28:15.649Z,97385.81
2022-11-28T20:30:46.756Z,97384.19
2022-11-28T20:33:14.099Z,97365.84
2022-11-28T20:35:43.280Z,97389.59
2022-11-28T20:38:10.882Z,97382.47
2022-11-28T20:40:49.798Z,97386.41
2022-11-28T20:43:17.237Z,97385.56
2022-11-28T20:45:47.420Z,97377.09
2022-11-28T20:48:16.316Z,97390.41
2022-11-28T20:50:48.630Z,97370.72
2022-11-28T20:53:25.168Z,97381.56
2022-11-28T20:58:52.457Z,97384.88
2022-11-28T21:01:27.197Z,97356.91
2022-11-28T21:03:58.838Z,97377.94
2022-11-28T21:06:29.302Z,97378.53
2022-11-28T21:08:57.723Z,97385.28
2022-11-28T21:14:24.437Z,97385.81
2022-11-28T21:16:52.924Z,97323.75
2022-11-28T21:19:21.475Z,97359.19
2022-11-28T21:21:53.748Z,97354.06
2022-11-28T21:24:20.954Z,97356.53
2022-11-28T21:26:54.516Z,97370.28
2022-11-28T21:29:50.359Z,97364.19
2022-11-28T21:32:20.200Z,97370.06
2022-11-28T21:34:56.387Z,97354.75
2022-11-28T21:37:30.692Z,97347.47
2022-11-28T21:39:58.288Z,97346.53
2022-11-28T21:42:29.231Z,97354.75
2022-11-28T21:45:11.590Z,97314.34
2022-11-28T21:47:57.918Z,97352.22
2022-11-28T21:50:28.370Z,97349.88
2022-11-28T21:52:57.186Z,97362.66
2022-11-28T21:55:25.431Z,97344.59
2022-11-28T21:57:55.763Z,97352.47
2022-11-28T22:00:45.985Z,97341.44
2022-11-28T22:03:19.977Z,97350.75
2022-11-28T22:05:48.349Z,97346.44
2022-11-28T22:08:16.049Z,97331.28
2022-11-28T22:10:43.499Z,97331.41
2022-11-28T22:13:14.033Z,97341.47
2022-11-28T22:15:45.646Z,97333.72
2022-11-28T22:18:14.010Z,97335.53
2022-11-28T22:20:45.742Z,97338.91
2022-11-28T22:23:15.329Z,97334.72
2022-11-28T22:25:51.279Z,97335.69
2022-11-28T22:28:22.978Z,97340.13
2022-11-28T22:30:50.236Z,97342.38
2022-11-28T22:33:18.877Z,97339.81
2022-11-28T22:35:46.901Z,97318.78
2022-11-28T22:38:14.311Z,97332.88
2022-11-28T22:40:41.386Z,97310.09
2022-11-28T22:43:09.309Z,97329.53
2022-11-28T22:45:36.496Z,97306.66
2022-11-28T22:48:04.170Z,97313.31
2022-11-28T22:50:40.217Z,97314.13
2022-11-28T22:53:07.521Z,97304.84
2022-11-28T22:55:37.018Z,97289.53
2022-11-28T22:58:04.978Z,97295.44
2022-11-28T23:00:34.441Z,97316.63
2022-11-28T23:03:01.674Z,97306.34
2022-11-28T23:05:28.933Z,97310.53
2022-11-28T23:07:58.104Z,97288.44
2022-11-28T23:10:25.970Z,97301.16
2022-11-28T23:12:54.694Z,97303.56
2022-11-28T23:15:25.452Z,97307.81
2022-11-28T23:17:53.300Z,97292.34
2022-11-28T23:20:22.708Z,97285.69
2022-11-28T23:22:50.664Z,97278.97
2022-11-28T23:25:19.840Z,97294.19
2022-11-28T23:27:48.605Z,97295.66
2022-11-28T23:30:19.918Z,97295.66
2022-11-28T23:32:49.753Z,97266.84
2022-11-28T23:35:18.388Z,97274.38
2022-11-28T23:37:46.422Z,97285.47
2022-11-28T23:40:15.065Z,97285.47
2022-11-28T23:42:42.283Z,97276.22
2022-11-28T23:45:14.732Z,97280.56
2022-11-28T23:47:41.965Z,97288.06
2022-11-28T23:50:14.047Z,97289.06
2022-11-28T23:52:41.153Z,97282.03
2022-11-28T23:55:08.973Z,97244.16
2022-11-28T23:57:36.056Z,97270.28
